F45 weather

North Palm Beach County General Aviation Airport
West Palm Beach, Florida, United States

Public forecast

Using degrees Fahrenheit for public forecast. Weather courtesy of forecast.io.

METAR (pilot weather report)

Closest report is Palm Beach International Airport, 11.8 nm (21.8 km) SE. Retrieved 2019/06/25 11:53 UTC (1 hour ago):

KPBI 251153Z 24004KT 10SM SCT018 28/25 A3005 RMK AO2 SLP176 FU SCT018 T02830250 10289 20272 53016 $

TAF (pilot weather forecast)

Closest forecast is Palm Beach International Airport, 11.8 nm (21.8 km) SE. Retrieved 2019/06/25 12:44 UTC (16 minutes ago):

TAF KPBI 251139Z 2512/2612 VRB03KT P6SM SKC FM251600 10008KT P6SM FEW030 SCT060 FM251900 10010KT P6SM SCT035 BKN060 FM260100 VRB03KT P6SM SCT035 SCT050